createdAt,value
2023-02-03T00:02:42.160Z,7.13
2023-02-03T00:05:48.217Z,6.65
2023-02-03T00:08:57.600Z,6.88
2023-02-03T00:12:01.393Z,6.05
2023-02-03T00:15:08.308Z,6.00
2023-02-03T00:18:12.066Z,6.25
2023-02-03T00:21:19.801Z,5.70
2023-02-03T00:24:23.595Z,6.18
2023-02-03T00:27:29.383Z,6.40
2023-02-03T00:30:35.322Z,7.63
2023-02-03T00:33:41.113Z,5.50
2023-02-03T00:36:47.832Z,5.25
2023-02-03T00:39:54.097Z,5.80
2023-02-03T00:42:57.989Z,5.68
2023-02-03T00:46:03.901Z,6.10
2023-02-03T00:52:15.904Z,5.78
2023-02-03T00:55:19.705Z,6.10
2023-02-03T00:58:27.218Z,5.72
2023-02-03T01:01:31.050Z,5.50
2023-02-03T01:04:36.901Z,5.60
2023-02-03T01:07:43.071Z,5.60
2023-02-03T01:10:48.917Z,6.10
2023-02-03T01:13:54.211Z,6.10
2023-02-03T01:17:00.262Z,7.35
2023-02-03T01:20:04.199Z,6.40
2023-02-03T01:23:11.919Z,6.60
2023-02-03T01:26:21.131Z,6.47
2023-02-03T01:29:27.063Z,5.28
2023-02-03T01:35:37.292Z,6.15
2023-02-03T01:38:44.184Z,6.15
2023-02-03T01:41:51.667Z,5.97
2023-02-03T01:44:55.476Z,6.00
2023-02-03T01:48:01.758Z,6.63
2023-02-03T01:51:06.963Z,5.47
2023-02-03T01:54:20.344Z,6.28
2023-02-03T01:57:29.041Z,6.10
2023-02-03T02:00:34.927Z,6.18
2023-02-03T02:03:42.972Z,5.65
2023-02-03T02:06:50.652Z,5.22
2023-02-03T02:09:56.914Z,5.15
2023-02-03T02:13:05.266Z,5.32
2023-02-03T02:16:13.692Z,5.70
2023-02-03T02:19:45.011Z,5.13
2023-02-03T02:23:08.784Z,5.32
2023-02-03T02:26:47.518Z,4.93
2023-02-03T02:30:19.451Z,6.20
2023-02-03T02:33:38.374Z,4.53
2023-02-03T02:36:52.933Z,4.43
2023-02-03T02:40:07.247Z,5.05
2023-02-03T02:43:16.009Z,4.25
2023-02-03T02:46:26.829Z,4.75
2023-02-03T02:49:39.757Z,4.65
2023-02-03T02:52:47.812Z,4.63
2023-02-03T02:55:54.753Z,4.00
2023-02-03T02:59:03.688Z,3.63
2023-02-03T03:02:07.515Z,4.55
2023-02-03T03:05:15.864Z,4.13
2023-02-03T03:08:30.402Z,3.95
2023-02-03T03:11:42.038Z,3.58
2023-02-03T03:14:50.037Z,3.80
2023-02-03T03:17:59.743Z,3.33
2023-02-03T03:21:07.202Z,3.35
2023-02-03T03:24:17.383Z,3.25
2023-02-03T03:27:24.523Z,2.70
2023-02-03T03:30:36.423Z,2.95
2023-02-03T03:33:40.697Z,2.80
2023-02-03T03:36:53.512Z,2.30
2023-02-03T03:39:58.916Z,2.20
2023-02-03T03:43:12.801Z,2.03
2023-02-03T03:46:21.647Z,2.90
2023-02-03T03:49:29.793Z,2.35
2023-02-03T03:52:38.478Z,2.42
2023-02-03T03:55:48.601Z,2.60
2023-02-03T03:58:54.739Z,1.95
2023-02-03T04:02:03.809Z,2.50
2023-02-03T04:05:09.892Z,2.58
2023-02-03T04:08:17.741Z,2.10
2023-02-03T04:11:34.540Z,2.40
2023-02-03T04:14:40.341Z,2.63
2023-02-03T04:17:44.118Z,2.40
2023-02-03T04:20:49.938Z,2.88
2023-02-03T04:23:56.298Z,2.35
2023-02-03T04:27:04.291Z,2.15
2023-02-03T04:30:11.406Z,1.90
2023-02-03T04:33:17.160Z,2.08
2023-02-03T04:36:20.950Z,2.17
2023-02-03T04:39:28.661Z,2.05
2023-02-03T04:42:32.493Z,1.85
2023-02-03T04:45:38.933Z,2.00
2023-02-03T04:48:42.708Z,2.05
2023-02-03T04:51:50.934Z,1.70
2023-02-03T04:54:56.738Z,1.60
2023-02-03T04:58:03.349Z,2.13
2023-02-03T05:01:10.712Z,1.98
2023-02-03T05:04:16.664Z,2.83
2023-02-03T05:10:28.276Z,2.00
2023-02-03T05:13:32.354Z,1.60
2023-02-03T05:16:38.198Z,1.88
2023-02-03T05:19:42.003Z,1.98
2023-02-03T05:22:47.860Z,2.10
2023-02-03T05:25:53.592Z,2.67
2023-02-03T05:28:59.432Z,1.65
2023-02-03T05:32:03.318Z,2.05
2023-02-03T05:35:10.047Z,2.08
2023-02-03T05:38:13.795Z,1.98
2023-02-03T05:41:34.662Z,2.20
2023-02-03T05:44:38.497Z,2.60
2023-02-03T05:47:44.430Z,1.60
2023-02-03T05:53:54.485Z,1.63
2023-02-03T05:57:00.176Z,2.20
2023-02-03T06:00:07.759Z,2.90
2023-02-03T06:03:15.842Z,2.20
2023-02-03T06:06:21.816Z,1.90
2023-02-03T06:09:25.621Z,2.25
2023-02-03T06:12:33.646Z,1.83
2023-02-03T06:15:37.657Z,2.47
2023-02-03T06:18:43.497Z,2.33
2023-02-03T06:21:47.238Z,2.17
2023-02-03T06:24:53.251Z,2.47
2023-02-03T06:27:59.018Z,2.45
2023-02-03T06:31:05.092Z,1.73
2023-02-03T06:34:08.926Z,2.25
2023-02-03T06:37:14.893Z,1.85
2023-02-03T06:43:26.234Z,2.15
2023-02-03T06:46:30.280Z,1.95
2023-02-03T06:49:36.203Z,2.28
2023-02-03T06:52:40.087Z,3.03
2023-02-03T06:55:47.185Z,2.00
2023-02-03T06:58:52.899Z,2.20
2023-02-03T07:01:58.731Z,2.47
2023-02-03T07:08:08.200Z,2.28
2023-02-03T07:11:12.149Z,2.40
2023-02-03T07:14:20.154Z,2.45
2023-02-03T07:17:23.924Z,2.85
2023-02-03T07:20:31.898Z,2.20
2023-02-03T07:23:36.016Z,2.50
2023-02-03T07:26:41.900Z,2.25
2023-02-03T07:29:47.653Z,2.50
2023-02-03T07:32:55.491Z,2.33
2023-02-03T07:36:01.233Z,2.22
2023-02-03T07:39:07.179Z,2.25
2023-02-03T07:45:26.074Z,4.07
2023-02-03T07:48:29.909Z,2.70
2023-02-03T07:51:35.749Z,3.15
2023-02-03T07:54:39.504Z,2.38
2023-02-03T07:57:45.358Z,2.47
2023-02-03T08:00:51.056Z,2.15
2023-02-03T08:03:56.901Z,2.55
2023-02-03T08:07:00.705Z,2.35
2023-02-03T08:10:07.696Z,2.45
2023-02-03T08:13:11.523Z,2.13
2023-02-03T08:16:19.285Z,2.22
2023-02-03T08:19:26.807Z,2.22
2023-02-03T08:22:32.613Z,1.80
2023-02-03T08:25:36.430Z,2.28
2023-02-03T08:28:42.271Z,1.85
2023-02-03T08:31:48.250Z,2.55
2023-02-03T08:34:55.421Z,2.33
2023-02-03T08:37:59.259Z,2.40
2023-02-03T08:41:11.072Z,2.83
2023-02-03T08:44:15.239Z,3.25
2023-02-03T08:47:24.006Z,2.00
2023-02-03T08:50:28.105Z,2.15
2023-02-03T08:53:34.072Z,1.83
2023-02-03T08:56:37.871Z,2.10
2023-02-03T08:59:45.088Z,2.22
2023-02-03T09:02:50.828Z,2.30
2023-02-03T09:05:56.771Z,2.45
2023-02-03T09:12:07.812Z,2.00
2023-02-03T09:15:12.287Z,2.70
2023-02-03T09:18:20.234Z,3.20
2023-02-03T09:21:33.585Z,2.40
2023-02-03T09:24:46.077Z,2.00
2023-02-03T09:27:52.100Z,2.20
2023-02-03T09:31:01.694Z,2.35
2023-02-03T09:34:07.525Z,1.95
2023-02-03T09:37:13.570Z,2.33
2023-02-03T09:43:38.419Z,2.75
2023-02-03T09:46:44.782Z,2.50
2023-02-03T09:49:55.425Z,2.33
2023-02-03T09:53:00.367Z,3.08
2023-02-03T09:56:06.691Z,2.08
2023-02-03T09:59:11.667Z,1.90
2023-02-03T10:02:48.199Z,2.38
2023-02-03T10:06:15.390Z,2.40
2023-02-03T10:09:34.231Z,2.17
2023-02-03T10:12:55.638Z,2.30
2023-02-03T10:16:20.132Z,3.78
2023-02-03T10:19:28.316Z,2.15
2023-02-03T10:22:41.939Z,2.70
2023-02-03T10:25:56.976Z,3.03
2023-02-03T10:29:09.630Z,2.42
2023-02-03T10:32:14.715Z,2.63
2023-02-03T10:35:21.429Z,2.30
2023-02-03T10:38:39.957Z,2.63
2023-02-03T10:41:46.052Z,3.20
2023-02-03T10:44:54.735Z,2.47
2023-02-03T10:48:01.631Z,2.90
2023-02-03T10:51:05.739Z,2.70
2023-02-03T10:54:29.412Z,2.15
2023-02-03T10:57:38.619Z,2.97
2023-02-03T11:00:45.266Z,3.65
2023-02-03T11:04:02.624Z,2.83
2023-02-03T11:07:24.408Z,3.15
2023-02-03T11:10:35.341Z,2.85
2023-02-03T11:13:41.300Z,4.32
2023-02-03T11:19:54.692Z,2.78
2023-02-03T11:22:58.718Z,3.55
2023-02-03T11:26:15.736Z,2.95
2023-02-03T11:29:24.101Z,3.45
2023-02-03T11:32:35.310Z,3.97
2023-02-03T11:35:39.952Z,3.10
2023-02-03T11:38:45.874Z,3.67
2023-02-03T11:41:51.882Z,3.38
2023-02-03T11:45:15.629Z,4.60
2023-02-03T11:48:30.403Z,3.65
2023-02-03T11:51:44.667Z,3.58
2023-02-03T11:54:57.850Z,3.22
2023-02-03T11:58:22.808Z,3.83
2023-02-03T12:01:49.427Z,3.35
2023-02-03T12:05:21.437Z,3.67
2023-02-03T12:08:47.281Z,4.35
2023-02-03T12:12:38.974Z,3.58
2023-02-03T12:16:02.435Z,3.55
2023-02-03T12:19:15.501Z,4.95
2023-02-03T12:22:30.213Z,4.97
2023-02-03T12:25:50.415Z,4.25
2023-02-03T12:29:04.201Z,5.72
2023-02-03T12:32:19.557Z,4.60
2023-02-03T12:35:28.627Z,4.53
2023-02-03T12:38:41.538Z,4.28
2023-02-03T12:41:52.303Z,5.00
2023-02-03T12:45:02.833Z,4.32
2023-02-03T12:48:14.066Z,5.30
2023-02-03T12:51:29.901Z,2.70
2023-02-03T12:54:44.717Z,4.45
2023-02-03T12:57:58.123Z,5.78
2023-02-03T13:01:06.687Z,4.15
2023-02-03T13:04:20.058Z,4.28
2023-02-03T13:07:28.773Z,6.10
2023-02-03T13:10:41.384Z,5.63
2023-02-03T13:13:52.455Z,4.78
2023-02-03T13:17:02.396Z,5.13
2023-02-03T13:20:18.435Z,6.65
2023-02-03T13:23:25.486Z,5.25
2023-02-03T13:27:05.286Z,4.88
2023-02-03T13:30:39.621Z,5.03
2023-02-03T13:34:09.110Z,4.43
2023-02-03T13:37:53.455Z,4.35
2023-02-03T13:41:03.989Z,4.95
2023-02-03T13:44:15.126Z,5.25
2023-02-03T13:47:22.880Z,4.32
2023-02-03T13:50:32.362Z,4.20
2023-02-03T13:53:41.347Z,4.35
2023-02-03T13:56:56.853Z,5.20
2023-02-03T14:00:00.730Z,5.05
2023-02-03T14:03:17.702Z,4.70
2023-02-03T14:06:58.228Z,5.03
2023-02-03T14:10:17.625Z,6.18
2023-02-03T14:13:23.075Z,5.07
2023-02-03T14:16:35.857Z,4.32
2023-02-03T14:19:56.443Z,4.82
2023-02-03T14:23:10.207Z,8.25
2023-02-03T14:26:26.672Z,5.30
2023-02-03T14:29:35.548Z,5.18
2023-02-03T14:32:57.311Z,4.70
2023-02-03T14:36:03.132Z,4.93
2023-02-03T14:39:44.796Z,4.50
2023-02-03T14:43:19.250Z,5.50
2023-02-03T14:46:53.981Z,3.85
2023-02-03T14:50:22.832Z,4.22
2023-02-03T14:53:40.477Z,4.60
2023-02-03T14:57:03.085Z,5.13
2023-02-03T15:00:27.039Z,4.95
2023-02-03T15:03:34.558Z,5.05
2023-02-03T15:06:41.410Z,5.32
2023-02-03T15:09:50.779Z,4.78
2023-02-03T15:12:56.391Z,4.82
2023-02-03T15:16:05.774Z,5.28
2023-02-03T15:19:18.578Z,5.88
2023-02-03T15:22:27.813Z,4.63
2023-02-03T15:25:32.860Z,3.58
2023-02-03T15:28:38.683Z,5.25
2023-02-03T15:31:48.206Z,4.43
2023-02-03T15:34:54.890Z,4.30
2023-02-03T15:38:04.036Z,5.30
2023-02-03T15:41:17.848Z,4.55
2023-02-03T15:44:29.984Z,5.43
2023-02-03T15:50:47.251Z,6.20
2023-02-03T15:53:57.723Z,5.07
2023-02-03T15:57:05.758Z,5.95
2023-02-03T16:00:25.647Z,4.28
2023-02-03T16:03:38.775Z,3.92
2023-02-03T16:06:48.628Z,4.97
2023-02-03T16:09:54.353Z,5.32
2023-02-03T16:13:21.420Z,4.50
2023-02-03T16:16:29.606Z,4.85
2023-02-03T16:19:40.617Z,4.78
2023-02-03T16:22:46.369Z,5.18
2023-02-03T16:26:08.466Z,5.00
2023-02-03T16:29:27.568Z,3.10
2023-02-03T16:32:46.536Z,4.82
2023-02-03T16:36:05.446Z,4.35
2023-02-03T16:39:27.020Z,4.88
2023-02-03T16:42:52.795Z,3.72
2023-02-03T16:46:13.678Z,3.88
2023-02-03T16:49:30.641Z,5.15
2023-02-03T16:52:38.394Z,4.75
2023-02-03T16:55:42.445Z,5.32
2023-02-03T16:58:48.213Z,5.45
2023-02-03T17:01:52.035Z,5.00
2023-02-03T17:04:58.001Z,4.60
2023-02-03T17:11:12.856Z,5.43
2023-02-03T17:14:17.070Z,6.03
2023-02-03T17:17:22.929Z,4.85
2023-02-03T17:23:34.687Z,5.25
2023-02-03T17:26:38.521Z,5.32
2023-02-03T17:29:44.329Z,5.18
2023-02-03T17:32:48.183Z,5.45
2023-02-03T17:36:02.747Z,6.32
2023-02-03T17:55:49.728Z,7.18
2023-02-03T17:58:57.314Z,7.13
2023-02-03T18:02:03.209Z,6.25
2023-02-03T18:05:07.860Z,4.82
2023-02-03T18:08:16.404Z,4.50
2023-02-03T18:11:22.922Z,7.28
2023-02-03T18:14:28.892Z,6.30
2023-02-03T18:20:38.277Z,6.13
2023-02-03T18:23:42.720Z,4.40
2023-02-03T18:26:52.712Z,4.68
2023-02-03T18:29:56.497Z,6.03
2023-02-03T18:33:03.240Z,4.75
2023-02-03T18:36:08.337Z,4.93
2023-02-03T18:39:15.922Z,5.85
2023-02-03T18:42:22.278Z,5.60
2023-02-03T18:45:28.539Z,5.25
2023-02-03T18:48:32.836Z,5.05
2023-02-03T18:51:39.197Z,5.05
2023-02-03T18:54:43.011Z,4.97
2023-02-03T18:57:50.869Z,6.35
2023-02-03T19:00:55.470Z,6.03
2023-02-03T19:04:03.027Z,6.20
2023-02-03T19:07:06.871Z,6.95
2023-02-03T19:10:13.176Z,5.80
2023-02-03T19:13:19.008Z,6.15
2023-02-03T19:16:24.869Z,5.15
2023-02-03T19:19:28.774Z,6.18
2023-02-03T19:22:35.009Z,5.40
2023-02-03T19:25:39.035Z,5.72
2023-02-03T19:28:46.908Z,5.18
2023-02-03T19:31:50.884Z,5.85
2023-02-03T19:34:56.772Z,5.80
2023-02-03T19:38:01.355Z,5.60
2023-02-03T19:41:08.139Z,7.40
2023-02-03T19:44:15.395Z,6.97
2023-02-03T19:47:21.330Z,5.75
2023-02-03T19:50:25.128Z,4.75
2023-02-03T19:53:31.027Z,7.82
2023-02-03T19:59:42.357Z,5.43
2023-02-03T20:02:46.340Z,5.88
2023-02-03T20:05:52.758Z,5.65
2023-02-03T20:08:58.573Z,5.25
2023-02-03T20:12:04.445Z,5.72
2023-02-03T20:18:16.218Z,5.05
2023-02-03T20:24:26.224Z,5.57
2023-02-03T20:27:30.024Z,6.97
2023-02-03T20:30:38.187Z,6.35
2023-02-03T20:33:42.039Z,5.40
2023-02-03T20:36:47.860Z,5.72
2023-02-03T20:39:51.688Z,5.72
2023-02-03T20:43:01.917Z,5.40
2023-02-03T20:46:11.686Z,5.07
2023-02-03T20:49:19.384Z,8.05
2023-02-03T20:52:23.479Z,4.47
2023-02-03T20:55:29.336Z,6.03
2023-02-03T21:01:44.754Z,4.63
2023-02-03T21:04:58.785Z,6.03
2023-02-03T21:08:12.112Z,6.78
2023-02-03T21:11:17.619Z,5.07
2023-02-03T21:14:25.771Z,5.13
2023-02-03T21:17:37.050Z,5.20
2023-02-03T21:20:43.065Z,5.53
2023-02-03T21:26:54.403Z,5.43
2023-02-03T21:29:58.975Z,6.47
2023-02-03T21:33:30.232Z,5.72
2023-02-03T21:36:36.930Z,6.13
2023-02-03T21:39:43.484Z,5.57
2023-02-03T21:42:48.263Z,4.90
2023-02-03T21:45:54.239Z,5.43
2023-02-03T21:49:00.840Z,5.10
2023-02-03T21:52:09.418Z,6.13
2023-02-03T21:55:17.517Z,5.32
2023-02-03T21:58:25.521Z,5.35
2023-02-03T22:01:36.900Z,5.95
2023-02-03T22:04:44.689Z,7.72
2023-02-03T22:07:48.530Z,8.85
2023-02-03T22:10:54.335Z,5.70
2023-02-03T22:13:58.481Z,4.93
2023-02-03T22:17:04.288Z,6.20
2023-02-03T22:23:16.302Z,5.13
2023-02-03T22:29:25.770Z,4.78
2023-02-03T22:32:29.937Z,6.47
2023-02-03T22:35:37.922Z,4.78
2023-02-03T22:38:42.705Z,6.72
2023-02-03T22:41:48.963Z,5.05
2023-02-03T22:44:52.856Z,5.38
2023-02-03T22:47:59.717Z,5.85
2023-02-03T22:51:05.707Z,5.30
2023-02-03T22:54:11.559Z,5.00
2023-02-03T23:00:23.663Z,5.68
2023-02-03T23:03:31.314Z,6.25
2023-02-03T23:06:39.380Z,4.90
2023-02-03T23:09:43.444Z,5.15
2023-02-03T23:12:49.658Z,4.80
2023-02-03T23:15:55.646Z,5.25
2023-02-03T23:19:01.470Z,6.30
2023-02-03T23:22:07.246Z,5.30
2023-02-03T23:25:13.777Z,5.20
2023-02-03T23:28:17.725Z,5.70
2023-02-03T23:31:23.638Z,5.25
2023-02-03T23:37:48.334Z,5.57
2023-02-03T23:40:53.586Z,5.55
2023-02-03T23:44:00.229Z,5.22
2023-02-03T23:47:04.317Z,6.43
2023-02-03T23:50:11.682Z,5.57
2023-02-03T23:53:17.580Z,5.38
2023-02-03T23:56:23.410Z,6.18
